sensor_id;sensor_type;location;lat;lon;timestamp;P1;durP1;ratioP1;P2;durP2;ratioP2
33876;SDS011;20166;51.738;7.158;2023-09-08T00:01:31;12.03;;;7.43;;
33876;SDS011;20166;51.738;7.158;2023-09-08T00:04:17;11.13;;;6.70;;
33876;SDS011;20166;51.738;7.158;2023-09-08T00:07:05;10.73;;;7.00;;
33876;SDS011;20166;51.738;7.158;2023-09-08T00:09:51;11.10;;;6.93;;
33876;SDS011;20166;51.738;7.158;2023-09-08T00:12:38;10.73;;;6.93;;
33876;SDS011;20166;51.738;7.158;2023-09-08T00:15:26;12.03;;;7.20;;
33876;SDS011;20166;51.738;7.158;2023-09-08T00:18:12;10.03;;;7.43;;
33876;SDS011;20166;51.738;7.158;2023-09-08T00:20:58;11.73;;;6.80;;
33876;SDS011;20166;51.738;7.158;2023-09-08T00:23:45;9.67;;;7.23;;
33876;SDS011;20166;51.738;7.158;2023-09-08T00:26:31;8.97;;;6.93;;
33876;SDS011;20166;51.738;7.158;2023-09-08T00:29:18;8.53;;;6.80;;
33876;SDS011;20166;51.738;7.158;2023-09-08T00:32:05;9.70;;;7.10;;
33876;SDS011;20166;51.738;7.158;2023-09-08T00:34:52;9.67;;;7.50;;
33876;SDS011;20166;51.738;7.158;2023-09-08T00:37:38;8.60;;;6.73;;
33876;SDS011;20166;51.738;7.158;2023-09-08T00:40:26;8.70;;;7.23;;
33876;SDS011;20166;51.738;7.158;2023-09-08T00:43:12;11.17;;;7.53;;
33876;SDS011;20166;51.738;7.158;2023-09-08T00:45:58;8.50;;;6.53;;
33876;SDS011;20166;51.738;7.158;2023-09-08T00:48:48;12.87;;;7.23;;
33876;SDS011;20166;51.738;7.158;2023-09-08T00:51:35;9.13;;;7.00;;
33876;SDS011;20166;51.738;7.158;2023-09-08T00:54:23;10.23;;;7.33;;
33876;SDS011;20166;51.738;7.158;2023-09-08T00:57:09;9.27;;;7.00;;
33876;SDS011;20166;51.738;7.158;2023-09-08T00:59:56;8.67;;;7.50;;
33876;SDS011;20166;51.738;7.158;2023-09-08T01:02:42;9.27;;;6.70;;
33876;SDS011;20166;51.738;7.158;2023-09-08T01:05:31;11.33;;;7.60;;
33876;SDS011;20166;51.738;7.158;2023-09-08T01:08:18;10.40;;;7.43;;
33876;SDS011;20166;51.738;7.158;2023-09-08T01:11:05;9.70;;;7.77;;
33876;SDS011;20166;51.738;7.158;2023-09-08T01:13:52;10.43;;;7.30;;
33876;SDS011;20166;51.738;7.158;2023-09-08T01:16:39;9.53;;;7.13;;
33876;SDS011;20166;51.738;7.158;2023-09-08T01:19:26;9.57;;;6.90;;
33876;SDS011;20166;51.738;7.158;2023-09-08T01:22:28;9.40;;;7.10;;
33876;SDS011;20166;51.738;7.158;2023-09-08T01:25:28;11.13;;;7.13;;
33876;SDS011;20166;51.738;7.158;2023-09-08T01:28:15;13.97;;;8.03;;
33876;SDS011;20166;51.738;7.158;2023-09-08T01:31:03;9.17;;;6.70;;
33876;SDS011;20166;51.738;7.158;2023-09-08T01:33:50;9.43;;;7.43;;
33876;SDS011;20166;51.738;7.158;2023-09-08T01:36:37;10.40;;;6.87;;
33876;SDS011;20166;51.738;7.158;2023-09-08T01:39:24;9.33;;;7.07;;
33876;SDS011;20166;51.738;7.158;2023-09-08T01:42:11;11.23;;;7.47;;
33876;SDS011;20166;51.738;7.158;2023-09-08T01:44:58;11.27;;;6.97;;
33876;SDS011;20166;51.738;7.158;2023-09-08T01:47:44;10.37;;;7.20;;
33876;SDS011;20166;51.738;7.158;2023-09-08T01:50:30;10.10;;;7.60;;
33876;SDS011;20166;51.738;7.158;2023-09-08T01:53:17;12.23;;;7.20;;
33876;SDS011;20166;51.738;7.158;2023-09-08T01:56:03;12.20;;;8.10;;
33876;SDS011;20166;51.738;7.158;2023-09-08T01:58:51;11.27;;;8.10;;
33876;SDS011;20166;51.738;7.158;2023-09-08T02:01:37;12.63;;;8.00;;
33876;SDS011;20166;51.738;7.158;2023-09-08T02:04:24;11.13;;;8.17;;
33876;SDS011;20166;51.738;7.158;2023-09-08T02:07:10;9.93;;;7.40;;
33876;SDS011;20166;51.738;7.158;2023-09-08T02:09:57;9.80;;;7.60;;
33876;SDS011;20166;51.738;7.158;2023-09-08T02:12:43;10.27;;;7.30;;
33876;SDS011;20166;51.738;7.158;2023-09-08T02:15:31;12.97;;;7.97;;
33876;SDS011;20166;51.738;7.158;2023-09-08T02:18:17;9.60;;;7.27;;
33876;SDS011;20166;51.738;7.158;2023-09-08T02:21:03;10.37;;;7.67;;
33876;SDS011;20166;51.738;7.158;2023-09-08T02:23:50;10.47;;;7.70;;
33876;SDS011;20166;51.738;7.158;2023-09-08T02:26:38;12.23;;;7.83;;
33876;SDS011;20166;51.738;7.158;2023-09-08T02:29:24;11.00;;;8.37;;
33876;SDS011;20166;51.738;7.158;2023-09-08T02:32:12;10.27;;;7.87;;
33876;SDS011;20166;51.738;7.158;2023-09-08T02:34:59;11.90;;;8.53;;
33876;SDS011;20166;51.738;7.158;2023-09-08T02:37:45;8.73;;;7.23;;
33876;SDS011;20166;51.738;7.158;2023-09-08T02:40:31;10.60;;;7.67;;
33876;SDS011;20166;51.738;7.158;2023-09-08T02:43:19;12.57;;;8.23;;
33876;SDS011;20166;51.738;7.158;2023-09-08T02:46:05;11.27;;;8.27;;
33876;SDS011;20166;51.738;7.158;2023-09-08T02:48:55;10.10;;;8.07;;
33876;SDS011;20166;51.738;7.158;2023-09-08T02:51:41;10.67;;;7.37;;
33876;SDS011;20166;51.738;7.158;2023-09-08T02:54:28;13.00;;;8.17;;
33876;SDS011;20166;51.738;7.158;2023-09-08T02:57:14;12.00;;;7.77;;
33876;SDS011;20166;51.738;7.158;2023-09-08T03:00:00;13.80;;;8.07;;
33876;SDS011;20166;51.738;7.158;2023-09-08T03:02:48;11.70;;;8.13;;
33876;SDS011;20166;51.738;7.158;2023-09-08T03:05:35;12.83;;;8.07;;
33876;SDS011;20166;51.738;7.158;2023-09-08T03:08:22;10.50;;;8.57;;
33876;SDS011;20166;51.738;7.158;2023-09-08T03:11:09;10.10;;;8.00;;
33876;SDS011;20166;51.738;7.158;2023-09-08T03:13:55;10.67;;;8.03;;
33876;SDS011;20166;51.738;7.158;2023-09-08T03:16:41;11.03;;;8.53;;
33876;SDS011;20166;51.738;7.158;2023-09-08T03:19:27;11.97;;;8.43;;
33876;SDS011;20166;51.738;7.158;2023-09-08T03:22:15;11.50;;;9.03;;
33876;SDS011;20166;51.738;7.158;2023-09-08T03:25:01;12.70;;;8.77;;
33876;SDS011;20166;51.738;7.158;2023-09-08T03:27:48;12.90;;;8.03;;
33876;SDS011;20166;51.738;7.158;2023-09-08T03:30:34;11.13;;;8.10;;
33876;SDS011;20166;51.738;7.158;2023-09-08T03:33:20;12.20;;;8.30;;
33876;SDS011;20166;51.738;7.158;2023-09-08T03:36:07;12.47;;;8.80;;
33876;SDS011;20166;51.738;7.158;2023-09-08T03:38:55;12.20;;;8.40;;
33876;SDS011;20166;51.738;7.158;2023-09-08T03:41:42;12.03;;;8.33;;
33876;SDS011;20166;51.738;7.158;2023-09-08T03:44:28;12.17;;;8.50;;
33876;SDS011;20166;51.738;7.158;2023-09-08T03:47:15;11.40;;;8.67;;
33876;SDS011;20166;51.738;7.158;2023-09-08T03:50:01;12.90;;;8.97;;
33876;SDS011;20166;51.738;7.158;2023-09-08T03:52:47;11.20;;;9.03;;
33876;SDS011;20166;51.738;7.158;2023-09-08T03:55:35;11.73;;;8.33;;
33876;SDS011;20166;51.738;7.158;2023-09-08T03:58:21;11.93;;;9.20;;
33876;SDS011;20166;51.738;7.158;2023-09-08T04:01:07;12.20;;;9.37;;
33876;SDS011;20166;51.738;7.158;2023-09-08T04:03:53;12.30;;;9.37;;
33876;SDS011;20166;51.738;7.158;2023-09-08T04:06:39;15.03;;;9.70;;
33876;SDS011;20166;51.738;7.158;2023-09-08T04:09:27;13.37;;;10.10;;
33876;SDS011;20166;51.738;7.158;2023-09-08T04:12:15;14.43;;;9.30;;
33876;SDS011;20166;51.738;7.158;2023-09-08T04:15:01;12.03;;;9.20;;
33876;SDS011;20166;51.738;7.158;2023-09-08T04:17:48;11.83;;;9.20;;
33876;SDS011;20166;51.738;7.158;2023-09-08T04:20:34;13.50;;;9.50;;
33876;SDS011;20166;51.738;7.158;2023-09-08T04:23:21;14.43;;;9.83;;
33876;SDS011;20166;51.738;7.158;2023-09-08T04:26:07;18.93;;;9.83;;
33876;SDS011;20166;51.738;7.158;2023-09-08T04:28:55;14.13;;;8.80;;
33876;SDS011;20166;51.738;7.158;2023-09-08T04:31:41;12.90;;;8.77;;
33876;SDS011;20166;51.738;7.158;2023-09-08T04:34:28;12.07;;;8.43;;
33876;SDS011;20166;51.738;7.158;2023-09-08T04:37:14;10.67;;;8.53;;
33876;SDS011;20166;51.738;7.158;2023-09-08T04:40:00;12.90;;;9.00;;
33876;SDS011;20166;51.738;7.158;2023-09-08T04:42:47;11.80;;;9.37;;
33876;SDS011;20166;51.738;7.158;2023-09-08T04:45:34;13.03;;;9.30;;
33876;SDS011;20166;51.738;7.158;2023-09-08T04:48:21;12.70;;;9.57;;
33876;SDS011;20166;51.738;7.158;2023-09-08T04:51:07;15.20;;;9.00;;
33876;SDS011;20166;51.738;7.158;2023-09-08T04:53:54;13.30;;;9.73;;
33876;SDS011;20166;51.738;7.158;2023-09-08T04:56:40;16.40;;;10.03;;
33876;SDS011;20166;51.738;7.158;2023-09-08T04:59:26;15.63;;;9.67;;
33876;SDS011;20166;51.738;7.158;2023-09-08T05:02:14;13.30;;;10.03;;
33876;SDS011;20166;51.738;7.158;2023-09-08T05:05:01;14.80;;;10.03;;
33876;SDS011;20166;51.738;7.158;2023-09-08T05:07:47;15.83;;;9.30;;
33876;SDS011;20166;51.738;7.158;2023-09-08T05:10:34;13.40;;;9.30;;
33876;SDS011;20166;51.738;7.158;2023-09-08T05:13:20;14.20;;;10.43;;
33876;SDS011;20166;51.738;7.158;2023-09-08T05:16:15;13.47;;;9.83;;
33876;SDS011;20166;51.738;7.158;2023-09-08T05:19:05;13.80;;;10.07;;
33876;SDS011;20166;51.738;7.158;2023-09-08T05:21:53;16.07;;;11.03;;
33876;SDS011;20166;51.738;7.158;2023-09-08T05:24:40;15.33;;;10.63;;
33876;SDS011;20166;51.738;7.158;2023-09-08T05:27:27;15.67;;;10.43;;
33876;SDS011;20166;51.738;7.158;2023-09-08T05:30:13;14.97;;;10.40;;
33876;SDS011;20166;51.738;7.158;2023-09-08T05:32:59;16.97;;;10.63;;
33876;SDS011;20166;51.738;7.158;2023-09-08T05:35:47;13.43;;;10.40;;
33876;SDS011;20166;51.738;7.158;2023-09-08T05:38:33;17.10;;;11.30;;
33876;SDS011;20166;51.738;7.158;2023-09-08T05:41:20;16.17;;;11.87;;
33876;SDS011;20166;51.738;7.158;2023-09-08T05:44:06;17.30;;;11.80;;
33876;SDS011;20166;51.738;7.158;2023-09-08T05:46:52;15.53;;;11.60;;
33876;SDS011;20166;51.738;7.158;2023-09-08T05:49:39;17.67;;;12.53;;
33876;SDS011;20166;51.738;7.158;2023-09-08T05:52:26;15.60;;;11.60;;
33876;SDS011;20166;51.738;7.158;2023-09-08T05:55:13;18.40;;;13.53;;
33876;SDS011;20166;51.738;7.158;2023-09-08T05:58:01;23.90;;;12.47;;
33876;SDS011;20166;51.738;7.158;2023-09-08T06:00:47;15.80;;;12.00;;
33876;SDS011;20166;51.738;7.158;2023-09-08T06:03:33;16.17;;;11.90;;
33876;SDS011;20166;51.738;7.158;2023-09-08T06:06:20;16.03;;;12.47;;
33876;SDS011;20166;51.738;7.158;2023-09-08T06:09:08;18.73;;;13.30;;
33876;SDS011;20166;51.738;7.158;2023-09-08T06:11:56;15.90;;;12.70;;
33876;SDS011;20166;51.738;7.158;2023-09-08T06:14:43;17.77;;;12.47;;
33876;SDS011;20166;51.738;7.158;2023-09-08T06:17:29;18.60;;;12.80;;
33876;SDS011;20166;51.738;7.158;2023-09-08T06:20:16;17.23;;;12.50;;
33876;SDS011;20166;51.738;7.158;2023-09-08T06:23:02;14.30;;;12.17;;
33876;SDS011;20166;51.738;7.158;2023-09-08T06:25:50;17.23;;;12.40;;
33876;SDS011;20166;51.738;7.158;2023-09-08T06:28:36;19.60;;;12.67;;
33876;SDS011;20166;51.738;7.158;2023-09-08T06:31:24;17.33;;;12.60;;
33876;SDS011;20166;51.738;7.158;2023-09-08T06:34:10;16.87;;;12.23;;
33876;SDS011;20166;51.738;7.158;2023-09-08T06:36:57;17.40;;;13.37;;
33876;SDS011;20166;51.738;7.158;2023-09-08T06:39:43;19.93;;;12.63;;
33876;SDS011;20166;51.738;7.158;2023-09-08T06:42:31;20.97;;;11.87;;
33876;SDS011;20166;51.738;7.158;2023-09-08T06:45:17;17.57;;;12.03;;
33876;SDS011;20166;51.738;7.158;2023-09-08T06:48:04;16.80;;;12.63;;
33876;SDS011;20166;51.738;7.158;2023-09-08T06:50:52;18.07;;;12.10;;
33876;SDS011;20166;51.738;7.158;2023-09-08T06:53:39;19.87;;;12.37;;
33876;SDS011;20166;51.738;7.158;2023-09-08T06:56:25;17.73;;;12.13;;
33876;SDS011;20166;51.738;7.158;2023-09-08T06:59:13;18.10;;;12.50;;
33876;SDS011;20166;51.738;7.158;2023-09-08T07:01:59;16.23;;;11.87;;
33876;SDS011;20166;51.738;7.158;2023-09-08T07:04:46;17.30;;;11.50;;
33876;SDS011;20166;51.738;7.158;2023-09-08T07:07:33;17.73;;;11.47;;
33876;SDS011;20166;51.738;7.158;2023-09-08T07:10:19;18.47;;;11.63;;
33876;SDS011;20166;51.738;7.158;2023-09-08T07:13:05;15.13;;;11.40;;
33876;SDS011;20166;51.738;7.158;2023-09-08T07:15:53;14.87;;;11.47;;
33876;SDS011;20166;51.738;7.158;2023-09-08T07:18:39;16.90;;;11.63;;
33876;SDS011;20166;51.738;7.158;2023-09-08T07:21:26;19.07;;;11.30;;
33876;SDS011;20166;51.738;7.158;2023-09-08T07:24:12;16.83;;;10.77;;
33876;SDS011;20166;51.738;7.158;2023-09-08T07:26:59;20.17;;;11.30;;
33876;SDS011;20166;51.738;7.158;2023-09-08T07:29:46;15.47;;;10.77;;
33876;SDS011;20166;51.738;7.158;2023-09-08T07:32:35;15.40;;;11.50;;
33876;SDS011;20166;51.738;7.158;2023-09-08T07:35:22;14.00;;;10.77;;
33876;SDS011;20166;51.738;7.158;2023-09-08T07:38:08;15.50;;;11.00;;
33876;SDS011;20166;51.738;7.158;2023-09-08T07:40:55;18.00;;;11.20;;
33876;SDS011;20166;51.738;7.158;2023-09-08T07:43:41;17.60;;;10.93;;
33876;SDS011;20166;51.738;7.158;2023-09-08T07:46:30;15.07;;;10.30;;
33876;SDS011;20166;51.738;7.158;2023-09-08T07:49:18;14.17;;;10.37;;
33876;SDS011;20166;51.738;7.158;2023-09-08T07:52:05;13.97;;;9.40;;
33876;SDS011;20166;51.738;7.158;2023-09-08T07:54:52;14.33;;;10.33;;
33876;SDS011;20166;51.738;7.158;2023-09-08T07:57:38;16.80;;;10.43;;
33876;SDS011;20166;51.738;7.158;2023-09-08T08:00:24;13.27;;;9.43;;
33876;SDS011;20166;51.738;7.158;2023-09-08T08:03:11;14.57;;;10.17;;
33876;SDS011;20166;51.738;7.158;2023-09-08T08:05:59;11.80;;;9.80;;
33876;SDS011;20166;51.738;7.158;2023-09-08T08:08:45;14.20;;;9.30;;
33876;SDS011;20166;51.738;7.158;2023-09-08T08:11:31;15.67;;;8.90;;
33876;SDS011;20166;51.738;7.158;2023-09-08T08:14:18;12.07;;;8.83;;
33876;SDS011;20166;51.738;7.158;2023-09-08T08:17:04;13.47;;;8.97;;
33876;SDS011;20166;51.738;7.158;2023-09-08T08:19:51;12.27;;;8.00;;
33876;SDS011;20166;51.738;7.158;2023-09-08T08:22:38;11.47;;;8.63;;
33876;SDS011;20166;51.738;7.158;2023-09-08T08:25:24;12.10;;;8.30;;
33876;SDS011;20166;51.738;7.158;2023-09-08T08:28:11;11.27;;;8.23;;
33876;SDS011;20166;51.738;7.158;2023-09-08T08:30:57;13.90;;;7.93;;
33876;SDS011;20166;51.738;7.158;2023-09-08T08:33:43;16.53;;;8.60;;
33876;SDS011;20166;51.738;7.158;2023-09-08T08:36:30;13.60;;;8.50;;
33876;SDS011;20166;51.738;7.158;2023-09-08T08:39:18;12.37;;;8.20;;
33876;SDS011;20166;51.738;7.158;2023-09-08T08:42:06;11.83;;;7.53;;
33876;SDS011;20166;51.738;7.158;2023-09-08T08:44:54;14.20;;;7.90;;
33876;SDS011;20166;51.738;7.158;2023-09-08T08:47:40;11.43;;;8.10;;
33876;SDS011;20166;51.738;7.158;2023-09-08T08:50:28;12.37;;;7.83;;
33876;SDS011;20166;51.738;7.158;2023-09-08T08:53:17;10.67;;;7.97;;
33876;SDS011;20166;51.738;7.158;2023-09-08T08:56:04;12.17;;;7.23;;
33876;SDS011;20166;51.738;7.158;2023-09-08T08:58:53;9.77;;;7.30;;
33876;SDS011;20166;51.738;7.158;2023-09-08T09:01:42;10.67;;;7.70;;
33876;SDS011;20166;51.738;7.158;2023-09-08T09:04:29;9.70;;;6.83;;
33876;SDS011;20166;51.738;7.158;2023-09-08T09:07:16;10.00;;;6.50;;
33876;SDS011;20166;51.738;7.158;2023-09-08T09:10:05;8.70;;;7.00;;
33876;SDS011;20166;51.738;7.158;2023-09-08T09:12:53;10.13;;;6.83;;
33876;SDS011;20166;51.738;7.158;2023-09-08T09:15:40;9.07;;;6.73;;
33876;SDS011;20166;51.738;7.158;2023-09-08T09:18:29;9.83;;;6.53;;
33876;SDS011;20166;51.738;7.158;2023-09-08T09:21:15;12.47;;;6.37;;
33876;SDS011;20166;51.738;7.158;2023-09-08T09:24:02;7.03;;;6.07;;
33876;SDS011;20166;51.738;7.158;2023-09-08T09:26:51;14.07;;;6.00;;
33876;SDS011;20166;51.738;7.158;2023-09-08T09:29:44;10.30;;;5.28;;
33876;SDS011;20166;51.738;7.158;2023-09-08T09:32:32;12.63;;;5.53;;
33876;SDS011;20166;51.738;7.158;2023-09-08T09:35:20;6.30;;;5.22;;
33876;SDS011;20166;51.738;7.158;2023-09-08T09:38:25;9.43;;;5.70;;
33876;SDS011;20166;51.738;7.158;2023-09-08T09:41:13;8.07;;;5.40;;
33876;SDS011;20166;51.738;7.158;2023-09-08T09:43:59;7.10;;;5.32;;
33876;SDS011;20166;51.738;7.158;2023-09-08T09:46:47;9.18;;;5.10;;
33876;SDS011;20166;51.738;7.158;2023-09-08T09:49:35;6.80;;;5.22;;
33876;SDS011;20166;51.738;7.158;2023-09-08T09:52:27;12.05;;;5.20;;
33876;SDS011;20166;51.738;7.158;2023-09-08T09:55:16;7.45;;;5.30;;
33876;SDS011;20166;51.738;7.158;2023-09-08T09:58:03;6.85;;;5.45;;
33876;SDS011;20166;51.738;7.158;2023-09-08T10:00:50;8.40;;;4.97;;
33876;SDS011;20166;51.738;7.158;2023-09-08T10:03:39;7.38;;;4.85;;
33876;SDS011;20166;51.738;7.158;2023-09-08T10:06:26;9.40;;;5.10;;
33876;SDS011;20166;51.738;7.158;2023-09-08T10:09:12;6.75;;;5.10;;
33876;SDS011;20166;51.738;7.158;2023-09-08T10:12:03;7.53;;;4.85;;
33876;SDS011;20166;51.738;7.158;2023-09-08T10:14:50;8.95;;;5.28;;
33876;SDS011;20166;51.738;7.158;2023-09-08T10:17:39;9.63;;;5.22;;
33876;SDS011;20166;51.738;7.158;2023-09-08T10:20:28;9.63;;;5.00;;
33876;SDS011;20166;51.738;7.158;2023-09-08T10:23:17;6.70;;;5.07;;
33876;SDS011;20166;51.738;7.158;2023-09-08T10:26:09;10.52;;;5.20;;
33876;SDS011;20166;51.738;7.158;2023-09-08T10:28:57;7.40;;;4.85;;
33876;SDS011;20166;51.738;7.158;2023-09-08T10:31:44;5.85;;;4.82;;
33876;SDS011;20166;51.738;7.158;2023-09-08T10:34:31;8.70;;;5.13;;
33876;SDS011;20166;51.738;7.158;2023-09-08T10:37:21;7.85;;;4.72;;
33876;SDS011;20166;51.738;7.158;2023-09-08T10:40:22;9.00;;;4.93;;
33876;SDS011;20166;51.738;7.158;2023-09-08T10:43:09;7.35;;;4.88;;
33876;SDS011;20166;51.738;7.158;2023-09-08T10:45:56;7.43;;;5.18;;
33876;SDS011;20166;51.738;7.158;2023-09-08T10:48:42;7.63;;;4.95;;
33876;SDS011;20166;51.738;7.158;2023-09-08T10:51:29;6.68;;;5.00;;
33876;SDS011;20166;51.738;7.158;2023-09-08T10:57:30;8.63;;;5.38;;
33876;SDS011;20166;51.738;7.158;2023-09-08T11:00:20;7.03;;;4.80;;
33876;SDS011;20166;51.738;7.158;2023-09-08T11:03:08;9.57;;;5.10;;
33876;SDS011;20166;51.738;7.158;2023-09-08T11:05:55;9.75;;;4.95;;
33876;SDS011;20166;51.738;7.158;2023-09-08T11:08:43;7.43;;;5.20;;
33876;SDS011;20166;51.738;7.158;2023-09-08T11:11:32;6.82;;;4.57;;
33876;SDS011;20166;51.738;7.158;2023-09-08T11:14:19;11.60;;;5.13;;
33876;SDS011;20166;51.738;7.158;2023-09-08T11:17:06;7.45;;;5.05;;
33876;SDS011;20166;51.738;7.158;2023-09-08T11:19:52;7.93;;;5.47;;
33876;SDS011;20166;51.738;7.158;2023-09-08T11:22:38;6.75;;;4.82;;
33876;SDS011;20166;51.738;7.158;2023-09-08T11:25:25;6.55;;;4.97;;
33876;SDS011;20166;51.738;7.158;2023-09-08T11:28:13;6.03;;;5.30;;
33876;SDS011;20166;51.738;7.158;2023-09-08T11:31:00;9.05;;;5.57;;
33876;SDS011;20166;51.738;7.158;2023-09-08T11:33:48;9.15;;;5.55;;
33876;SDS011;20166;51.738;7.158;2023-09-08T11:36:35;9.43;;;5.10;;
33876;SDS011;20166;51.738;7.158;2023-09-08T11:39:23;5.93;;;5.32;;
33876;SDS011;20166;51.738;7.158;2023-09-08T11:42:10;9.40;;;5.10;;
33876;SDS011;20166;51.738;7.158;2023-09-08T11:44:59;6.10;;;5.00;;
33876;SDS011;20166;51.738;7.158;2023-09-08T11:47:45;8.15;;;5.65;;
33876;SDS011;20166;51.738;7.158;2023-09-08T11:50:31;7.45;;;4.93;;
33876;SDS011;20166;51.738;7.158;2023-09-08T11:53:18;6.20;;;4.72;;
33876;SDS011;20166;51.738;7.158;2023-09-08T11:56:06;6.68;;;5.07;;
33876;SDS011;20166;51.738;7.158;2023-09-08T11:58:53;6.30;;;4.95;;
33876;SDS011;20166;51.738;7.158;2023-09-08T12:01:41;5.95;;;4.97;;
33876;SDS011;20166;51.738;7.158;2023-09-08T12:04:27;6.50;;;4.93;;
33876;SDS011;20166;51.738;7.158;2023-09-08T12:07:13;6.05;;;4.90;;
33876;SDS011;20166;51.738;7.158;2023-09-08T12:10:06;5.88;;;4.82;;
33876;SDS011;20166;51.738;7.158;2023-09-08T12:12:54;5.90;;;4.72;;
33876;SDS011;20166;51.738;7.158;2023-09-08T12:15:45;7.47;;;4.78;;
33876;SDS011;20166;51.738;7.158;2023-09-08T12:18:39;7.35;;;4.88;;
33876;SDS011;20166;51.738;7.158;2023-09-08T12:21:28;6.68;;;5.05;;
33876;SDS011;20166;51.738;7.158;2023-09-08T12:24:16;7.25;;;4.90;;
33876;SDS011;20166;51.738;7.158;2023-09-08T12:27:03;8.38;;;4.80;;
33876;SDS011;20166;51.738;7.158;2023-09-08T12:29:56;6.03;;;4.68;;
33876;SDS011;20166;51.738;7.158;2023-09-08T12:32:44;6.55;;;5.00;;
33876;SDS011;20166;51.738;7.158;2023-09-08T12:35:34;5.20;;;4.68;;
33876;SDS011;20166;51.738;7.158;2023-09-08T12:38:20;6.45;;;5.13;;
33876;SDS011;20166;51.738;7.158;2023-09-08T12:41:07;5.45;;;4.95;;
33876;SDS011;20166;51.738;7.158;2023-09-08T12:43:54;5.72;;;4.93;;
33876;SDS011;20166;51.738;7.158;2023-09-08T12:46:40;6.85;;;4.55;;
33876;SDS011;20166;51.738;7.158;2023-09-08T12:49:27;7.63;;;4.82;;
33876;SDS011;20166;51.738;7.158;2023-09-08T12:52:14;6.18;;;4.28;;
33876;SDS011;20166;51.738;7.158;2023-09-08T12:55:01;6.47;;;4.60;;
33876;SDS011;20166;51.738;7.158;2023-09-08T12:57:47;5.28;;;4.53;;
33876;SDS011;20166;51.738;7.158;2023-09-08T13:00:35;7.18;;;4.85;;
33876;SDS011;20166;51.738;7.158;2023-09-08T13:03:21;5.95;;;4.70;;
33876;SDS011;20166;51.738;7.158;2023-09-08T13:06:07;5.00;;;4.50;;
33876;SDS011;20166;51.738;7.158;2023-09-08T13:08:55;6.90;;;4.50;;
33876;SDS011;20166;51.738;7.158;2023-09-08T13:11:43;6.93;;;4.95;;
33876;SDS011;20166;51.738;7.158;2023-09-08T13:14:29;4.95;;;4.45;;
33876;SDS011;20166;51.738;7.158;2023-09-08T13:17:16;11.57;;;4.55;;
33876;SDS011;20166;51.738;7.158;2023-09-08T13:20:02;6.47;;;4.43;;
33876;SDS011;20166;51.738;7.158;2023-09-08T13:22:49;6.85;;;4.60;;
33876;SDS011;20166;51.738;7.158;2023-09-08T13:25:37;5.53;;;4.72;;
33876;SDS011;20166;51.738;7.158;2023-09-08T13:28:24;6.40;;;4.60;;
33876;SDS011;20166;51.738;7.158;2023-09-08T13:31:11;5.38;;;4.40;;
33876;SDS011;20166;51.738;7.158;2023-09-08T13:33:57;5.65;;;4.72;;
33876;SDS011;20166;51.738;7.158;2023-09-08T13:36:43;5.10;;;4.60;;
33876;SDS011;20166;51.738;7.158;2023-09-08T13:39:29;5.20;;;4.70;;
33876;SDS011;20166;51.738;7.158;2023-09-08T13:42:17;5.25;;;4.75;;
33876;SDS011;20166;51.738;7.158;2023-09-08T13:45:04;6.20;;;4.55;;
33876;SDS011;20166;51.738;7.158;2023-09-08T13:47:51;5.90;;;4.53;;
33876;SDS011;20166;51.738;7.158;2023-09-08T13:50:37;6.15;;;4.50;;
33876;SDS011;20166;51.738;7.158;2023-09-08T13:53:25;7.43;;;4.57;;
33876;SDS011;20166;51.738;7.158;2023-09-08T13:56:27;6.35;;;4.80;;
33876;SDS011;20166;51.738;7.158;2023-09-08T13:59:19;5.30;;;4.68;;
33876;SDS011;20166;51.738;7.158;2023-09-08T14:02:11;7.15;;;4.50;;
33876;SDS011;20166;51.738;7.158;2023-09-08T14:05:00;5.13;;;4.63;;
33876;SDS011;20166;51.738;7.158;2023-09-08T14:07:53;6.72;;;4.57;;
33876;SDS011;20166;51.738;7.158;2023-09-08T14:10:50;4.95;;;4.45;;
33876;SDS011;20166;51.738;7.158;2023-09-08T14:13:49;4.97;;;4.40;;
33876;SDS011;20166;51.738;7.158;2023-09-08T14:16:37;5.53;;;4.55;;
33876;SDS011;20166;51.738;7.158;2023-09-08T14:19:23;6.10;;;4.20;;
33876;SDS011;20166;51.738;7.158;2023-09-08T14:22:10;5.55;;;4.10;;
33876;SDS011;20166;51.738;7.158;2023-09-08T14:24:56;5.13;;;4.45;;
33876;SDS011;20166;51.738;7.158;2023-09-08T14:27:42;5.15;;;4.15;;
33876;SDS011;20166;51.738;7.158;2023-09-08T14:30:28;7.22;;;4.80;;
33876;SDS011;20166;51.738;7.158;2023-09-08T14:33:16;5.22;;;4.45;;
33876;SDS011;20166;51.738;7.158;2023-09-08T14:36:03;6.57;;;4.65;;
33876;SDS011;20166;51.738;7.158;2023-09-08T14:38:50;5.45;;;4.45;;
33876;SDS011;20166;51.738;7.158;2023-09-08T14:41:36;6.30;;;4.70;;
33876;SDS011;20166;51.738;7.158;2023-09-08T14:44:22;5.32;;;4.80;;
33876;SDS011;20166;51.738;7.158;2023-09-08T14:47:08;4.85;;;4.00;;
33876;SDS011;20166;51.738;7.158;2023-09-08T14:49:56;5.30;;;4.38;;
33876;SDS011;20166;51.738;7.158;2023-09-08T14:52:42;7.43;;;4.75;;
33876;SDS011;20166;51.738;7.158;2023-09-08T14:55:29;5.43;;;4.57;;
33876;SDS011;20166;51.738;7.158;2023-09-08T14:58:16;6.57;;;4.78;;
33876;SDS011;20166;51.738;7.158;2023-09-08T15:01:02;6.22;;;4.70;;
33876;SDS011;20166;51.738;7.158;2023-09-08T15:03:52;10.15;;;4.72;;
33876;SDS011;20166;51.738;7.158;2023-09-08T15:06:41;5.13;;;4.63;;
33876;SDS011;20166;51.738;7.158;2023-09-08T15:09:28;6.78;;;4.93;;
33876;SDS011;20166;51.738;7.158;2023-09-08T15:12:16;5.88;;;4.70;;
33876;SDS011;20166;51.738;7.158;2023-09-08T15:15:02;5.60;;;4.68;;
33876;SDS011;20166;51.738;7.158;2023-09-08T15:17:49;5.35;;;4.75;;
33876;SDS011;20166;51.738;7.158;2023-09-08T15:20:36;6.30;;;5.18;;
33876;SDS011;20166;51.738;7.158;2023-09-08T15:23:24;5.70;;;5.00;;
33876;SDS011;20166;51.738;7.158;2023-09-08T15:26:10;5.43;;;4.60;;
33876;SDS011;20166;51.738;7.158;2023-09-08T15:28:57;5.07;;;4.57;;
33876;SDS011;20166;51.738;7.158;2023-09-08T15:31:44;7.00;;;4.82;;
33876;SDS011;20166;51.738;7.158;2023-09-08T15:34:32;5.63;;;4.70;;
33876;SDS011;20166;51.738;7.158;2023-09-08T15:37:18;6.35;;;4.80;;
33876;SDS011;20166;51.738;7.158;2023-09-08T15:40:06;6.60;;;4.80;;
33876;SDS011;20166;51.738;7.158;2023-09-08T15:42:58;5.28;;;4.78;;
33876;SDS011;20166;51.738;7.158;2023-09-08T15:45:45;5.93;;;5.00;;
33876;SDS011;20166;51.738;7.158;2023-09-08T15:48:33;5.80;;;4.90;;
33876;SDS011;20166;51.738;7.158;2023-09-08T15:51:20;5.68;;;4.53;;
33876;SDS011;20166;51.738;7.158;2023-09-08T15:54:06;6.63;;;5.18;;
33876;SDS011;20166;51.738;7.158;2023-09-08T15:56:54;5.85;;;4.90;;
33876;SDS011;20166;51.738;7.158;2023-09-08T15:59:40;8.15;;;4.85;;
33876;SDS011;20166;51.738;7.158;2023-09-08T16:02:26;8.82;;;5.38;;
33876;SDS011;20166;51.738;7.158;2023-09-08T16:05:12;6.53;;;5.20;;
33876;SDS011;20166;51.738;7.158;2023-09-08T16:08:00;5.30;;;4.80;;
33876;SDS011;20166;51.738;7.158;2023-09-08T16:10:47;6.45;;;5.00;;
33876;SDS011;20166;51.738;7.158;2023-09-08T16:13:35;6.35;;;5.20;;
33876;SDS011;20166;51.738;7.158;2023-09-08T16:16:21;6.03;;;5.20;;
33876;SDS011;20166;51.738;7.158;2023-09-08T16:19:07;7.13;;;4.88;;
33876;SDS011;20166;51.738;7.158;2023-09-08T16:21:57;5.57;;;5.03;;
33876;SDS011;20166;51.738;7.158;2023-09-08T16:24:43;6.38;;;5.38;;
33876;SDS011;20166;51.738;7.158;2023-09-08T16:27:30;5.80;;;5.00;;
33876;SDS011;20166;51.738;7.158;2023-09-08T16:30:17;7.25;;;5.38;;
33876;SDS011;20166;51.738;7.158;2023-09-08T16:33:04;6.13;;;5.25;;
33876;SDS011;20166;51.738;7.158;2023-09-08T16:35:50;6.53;;;5.60;;
33876;SDS011;20166;51.738;7.158;2023-09-08T16:38:39;7.82;;;5.45;;
33876;SDS011;20166;51.738;7.158;2023-09-08T16:41:26;7.93;;;5.65;;